Terminal Aerodrome Forecast
Issued by NWS

Home | Current Version | Previous Version | Text Only | Print | Product List | Glossary On
Versions: 1 2 3 4 5 6 7 8 9 10 11 12
867
FTUS46 KPDT 170520
TAFPSC
TAF
KPSC 170520Z 1706/1806 33012KT P6SM SKC
     FM170900 VRB05KT P6SM SKC
     FM171900 24006KT P6SM SKC=

USA.gov is the U.S. government's official web portal to all federal, state and local government web resources and services.